Time;durP1;ratioP1;P1;durP2;ratioP2;P2;SDS_P1;SDS_P2;PMS_P1;PMS_P2;Temp;Humidity;BMP_temperature;BMP_pressure;BME280_temperature;BME280_humidity;BME280_pressure;Samples;Min_cycle;Max_cycle;Signal;HPM_P1;HPM_P2
2022/01/10 00:00:23;;;;;;;5.83;3.33;;;;;;;7.42;30.02;99067.22;5039877;28;20122;-70
2022/01/10 00:02:52;;;;;;;5.10;3.07;;;;;;;7.93;29.95;99069.94;5091660;28;20124;-70
2022/01/10 00:05:18;;;;;;;6.23;2.93;;;;;;;7.47;30.39;99065.81;5093372;28;20043;-70
2022/01/10 00:07:44;;;;;;;8.00;3.50;;;;;;;7.54;30.16;99072.13;5058439;28;20044;-70
2022/01/10 00:10:10;;;;;;;6.53;3.33;;;;;;;7.66;30.17;99067.41;5058378;28;20554;-70
2022/01/10 00:12:37;;;;;;;8.43;3.33;;;;;;;7.57;30.16;99026.06;5057823;28;20055;-70
2022/01/10 00:15:05;;;;;;;6.43;3.17;;;;;;;8.13;30.54;99068.75;5074051;28;20588;-70
2022/01/10 00:17:31;;;;;;;7.47;3.30;;;;;;;7.77;30.03;99070.66;5090643;28;20059;-70
2022/01/10 00:19:56;;;;;;;9.27;3.60;;;;;;;7.56;29.94;99071.97;5040201;28;20555;-72
2022/01/10 00:22:24;;;;;;;9.13;3.53;;;;;;;7.57;29.85;99063.91;5073749;28;20189;-71
2022/01/10 00:24:50;;;;;;;6.37;3.43;;;;;;;7.58;29.89;99072.66;5090055;28;20043;-71
2022/01/10 00:27:16;;;;;;;6.73;3.30;;;;;;;7.55;30.05;99062.41;5040303;28;20107;-72
2022/01/10 00:29:42;;;;;;;8.93;3.03;;;;;;;7.66;30.14;99078.84;5040071;28;20098;-71
2022/01/10 00:32:07;;;;;;;5.20;2.77;;;;;;;7.57;29.94;99073.63;5057200;28;20522;-69
2022/01/10 00:34:34;;;;;;;9.30;3.37;;;;;;;7.65;30.40;99061.31;5074149;28;20134;-70
2022/01/10 00:37:00;;;;;;;8.13;3.27;;;;;;;7.65;29.62;99069.25;5090099;28;20131;-70
2022/01/10 00:39:26;;;;;;;5.40;3.30;;;;;;;7.59;29.70;99064.59;5090335;28;20048;-70
2022/01/10 00:41:52;;;;;;;6.77;3.27;;;;;;;7.49;30.13;99060.38;5056476;28;20078;-72
2022/01/10 00:44:24;;;;;;;8.57;3.43;;;;;;;7.56;29.98;99064.06;5056581;28;20044;-71
2022/01/10 00:46:50;;;;;;;8.40;3.63;;;;;;;7.32;29.93;99045.38;5056398;28;20040;-71
2022/01/10 00:49:19;;;;;;;9.30;3.43;;;;;;;7.76;29.87;99062.88;5073467;28;20507;-71
2022/01/10 00:51:45;;;;;;;6.13;3.00;;;;;;;7.65;30.02;99063.13;5090096;28;20510;-72
2022/01/10 00:54:10;;;;;;;14.87;3.77;;;;;;;7.41;29.74;99053.19;5056716;28;20055;-71
2022/01/10 00:56:36;;;;;;;8.90;3.40;;;;;;;7.54;30.00;99064.19;5056319;28;20044;-71
2022/01/10 00:59:02;;;;;;;8.90;4.50;;;;;;;7.54;30.07;99066.00;5056426;28;20048;-71
2022/01/10 01:01:29;;;;;;;8.70;4.17;;;;;;;7.50;30.08;99051.44;5056647;28;20036;-70
2022/01/10 01:03:55;;;;;;;12.67;4.97;;;;;;;7.41;30.02;99037.34;5056129;28;20046;-70
2022/01/10 01:06:20;;;;;;;14.67;5.53;;;;;;;7.56;30.20;99053.47;5073105;28;20051;-71
2022/01/10 01:08:47;;;;;;;14.83;5.07;;;;;;;7.66;30.00;99049.75;5056529;28;20073;-71
2022/01/10 01:13:59;;;;;;;12.17;4.67;;;;;;;7.60;30.18;99046.91;5102682;27;1411103;-70
2022/01/10 01:24:35;;;;;;;13.07;4.70;;;;;;;7.69;30.38;99040.69;5031835;28;20036;-71
2022/01/10 01:27:01;;;;;;;12.90;6.17;;;;;;;7.79;30.30;99033.50;5059343;28;20110;-71
2022/01/10 01:29:29;;;;;;;10.33;5.10;;;;;;;8.28;30.12;99032.81;5092670;28;20035;-70
2022/01/10 01:31:55;;;;;;;10.73;4.70;;;;;;;8.03;29.96;99036.28;5109529;28;20043;-70
2022/01/10 01:34:23;;;;;;;11.27;4.83;;;;;;;8.21;30.02;99029.94;5092875;28;20043;-70
2022/01/10 01:36:54;;;;;;;11.70;5.27;;;;;;;7.97;29.84;99031.63;5109839;28;20058;-71
2022/01/10 01:39:23;;;;;;;14.77;5.53;;;;;;;8.18;30.12;99032.09;5110291;28;20122;-71
2022/01/10 01:42:01;;;;;;;16.87;5.97;;;;;;;8.31;29.74;99035.16;5094677;28;20047;-71
2022/01/10 01:44:27;;;;;;;17.50;6.00;;;;;;;7.68;29.80;99025.81;5110602;28;20511;-71
2022/01/10 01:46:53;;;;;;;10.10;5.30;;;;;;;7.82;29.94;99035.84;5092560;28;20043;-71
2022/01/10 01:49:19;;;;;;;10.93;5.07;;;;;;;7.77;30.07;99033.66;5109545;28;20048;-72
2022/01/10 01:51:45;;;;;;;16.03;5.70;;;;;;;7.85;29.87;99025.78;5092348;28;20039;-71
2022/01/10 01:54:12;;;;;;;18.30;5.77;;;;;;;7.92;30.05;99028.63;5091288;28;20043;-70
2022/01/10 01:56:39;;;;;;;13.27;5.67;;;;;;;7.96;29.70;99028.19;5107957;28;20047;-70
2022/01/10 01:59:06;;;;;;;12.03;5.60;;;;;;;8.10;29.63;99032.06;5074156;28;20059;-71
2022/01/10 02:01:32;;;;;;;14.47;5.80;;;;;;;7.94;29.57;99024.84;5107957;28;20118;-71
2022/01/10 02:03:58;;;;;;;15.50;5.70;;;;;;;7.94;29.83;99024.00;5073719;28;20440;-71
2022/01/10 02:06:28;;;;;;;17.90;5.63;;;;;;;7.95;29.51;99026.50;5091715;28;20039;-72
2022/01/10 02:08:54;;;;;;;11.87;5.50;;;;;;;7.91;29.93;99027.81;5075263;28;20039;-71
2022/01/10 02:11:20;;;;;;;16.07;5.50;;;;;;;7.82;29.88;99017.34;5092957;28;20091;-72
2022/01/10 02:13:46;;;;;;;13.00;5.90;;;;;;;7.75;30.31;99005.72;5091853;28;20063;-72
2022/01/10 02:16:54;;;;;;;17.20;5.73;;;;;;;7.71;29.91;98999.91;5098439;28;20035;-72
2022/01/10 02:19:56;;;;;;;13.90;5.10;;;;;;;8.65;29.29;99027.19;5098548;28;20039;-72
2022/01/10 02:22:22;;;;;;;12.27;5.40;;;;;;;7.95;29.60;99023.84;5092546;28;20040;-71
2022/01/10 02:25:01;;;;;;;12.57;5.57;;;;;;;7.95;29.66;99023.03;5083702;28;20050;-72
2022/01/10 02:27:29;;;;;;;18.70;5.93;;;;;;;8.06;29.61;99017.47;5095258;28;20455;-71
2022/01/10 02:29:54;;;;;;;20.30;6.13;;;;;;;7.73;29.63;98984.75;5112182;28;20092;-71
2022/01/10 02:32:23;;;;;;;11.57;4.97;;;;;;;8.26;29.72;99021.56;5094988;28;20044;-71
2022/01/10 02:34:50;;;;;;;12.93;4.60;;;;;;;8.04;29.78;99024.75;5078753;28;20081;-70
2022/01/10 02:37:50;;;;;;;11.43;4.47;;;;;;;8.89;29.20;99011.38;5095344;28;20075;-72
2022/01/10 02:40:19;;;;;;;11.02;4.80;;;;;;;8.13;29.98;99018.50;5042327;28;20050;-71
2022/01/10 02:42:45;;;;;;;17.30;5.80;;;;;;;8.20;29.67;99025.66;5112029;28;20479;-71
2022/01/10 02:45:12;;;;;;;15.97;5.67;;;;;;;8.11;29.68;99012.53;5061913;28;20333;-69
2022/01/10 02:47:41;;;;;;;17.30;6.20;;;;;;;8.52;29.72;99014.41;5094752;28;20553;-71
2022/01/10 02:50:07;;;;;;;12.53;4.70;;;;;;;8.14;29.68;99010.41;5061155;28;20073;-70
2022/01/10 02:52:34;;;;;;;14.70;5.83;;;;;;;8.35;29.55;99004.75;5060903;28;20461;-71
2022/01/10 02:55:01;;;;;;;11.77;4.20;;;;;;;7.98;29.97;99012.16;5077651;28;20551;-70
2022/01/10 02:57:29;;;;;;;10.83;4.77;;;;;;;7.81;29.79;99011.19;5094856;28;20598;-72
2022/01/10 03:00:00;;;;;;;12.90;4.70;;;;;;;8.18;30.08;99017.03;5078017;28;20046;-72
2022/01/10 03:02:31;;;;;;;13.73;4.07;;;;;;;8.24;29.79;99020.91;5111417;28;20036;-72
2022/01/10 03:04:58;;;;;;;10.37;4.03;;;;;;;7.98;29.81;99018.25;5095015;28;20062;-72
2022/01/10 03:07:24;;;;;;;10.13;4.03;;;;;;;7.92;29.82;99023.31;5077413;28;20381;-70
2022/01/10 03:09:51;;;;;;;10.73;4.03;;;;;;;8.11;29.82;98996.66;5077244;28;20043;-70
2022/01/10 03:12:17;;;;;;;8.83;3.80;;;;;;;8.05;29.68;99026.41;5094485;28;20200;-69
2022/01/10 03:14:43;;;;;;;12.17;3.90;;;;;;;8.07;29.78;99025.25;5111681;28;20058;-70
2022/01/10 03:17:11;;;;;;;8.57;3.63;;;;;;;7.92;29.57;99025.97;5060426;28;20039;-70
2022/01/10 03:19:38;;;;;;;6.33;3.50;;;;;;;8.12;29.92;99028.25;5077045;28;20043;-71
2022/01/10 03:22:05;;;;;;;6.33;3.33;;;;;;;7.85;30.07;98987.94;5111062;28;20040;-71
2022/01/10 03:24:32;;;;;;;8.03;3.67;;;;;;;7.93;29.78;99033.75;5060820;28;20047;-71
2022/01/10 03:26:58;;;;;;;7.80;3.63;;;;;;;7.75;29.90;99040.91;5060286;28;20146;-70
2022/01/10 03:29:24;;;;;;;9.37;3.77;;;;;;;7.74;29.77;99041.91;5060313;28;20563;-70
2022/01/10 03:31:50;;;;;;;11.43;3.40;;;;;;;7.79;29.85;99036.16;5076518;28;20502;-70
2022/01/10 03:34:17;;;;;;;9.77;3.83;;;;;;;7.70;29.79;99047.66;5060600;28;20130;-69
2022/01/10 03:36:44;;;;;;;5.13;2.77;;;;;;;7.85;29.89;99009.94;5076145;28;20130;-71
2022/01/10 03:39:11;;;;;;;7.07;3.43;;;;;;;8.14;29.71;99047.44;5093594;28;20039;-71
2022/01/10 03:41:37;;;;;;;11.10;3.53;;;;;;;8.00;29.77;99055.94;5093564;28;20196;-71
2022/01/10 03:44:05;;;;;;;15.30;3.73;;;;;;;8.01;29.81;99047.03;5093866;28;20170;-67
2022/01/10 03:46:34;;;;;;;9.60;3.80;;;;;;;7.81;29.79;99035.00;5110496;28;20050;-67
2022/01/10 03:49:01;;;;;;;14.40;4.13;;;;;;;7.56;29.71;99043.75;5076544;28;20044;-67
2022/01/10 03:51:28;;;;;;;8.20;3.87;;;;;;;7.33;29.73;99007.41;5077266;28;20062;-68
2022/01/10 03:53:54;;;;;;;7.93;3.53;;;;;;;7.56;29.84;99035.00;5059970;28;20419;-67
2022/01/10 03:56:21;;;;;;;11.33;3.30;;;;;;;7.61;29.93;99008.94;5093620;28;20105;-68
2022/01/10 03:58:47;;;;;;;6.60;2.70;;;;;;;7.53;30.04;99048.50;5090176;28;20121;-67
2022/01/10 04:01:13;;;;;;;7.00;3.47;;;;;;;7.30;30.21;99018.25;5072934;28;20036;-67
2022/01/10 04:03:41;;;;;;;6.47;3.63;;;;;;;7.66;30.05;99043.63;5070531;28;20040;-70
2022/01/10 04:06:11;;;;;;;6.15;3.08;;;;;;;7.48;30.04;99043.69;5057789;28;20376;-68
2022/01/10 04:08:37;;;;;;;10.27;3.53;;;;;;;7.45;30.04;99044.00;5097626;28;20062;-67
2022/01/10 04:11:04;;;;;;;9.20;3.50;;;;;;;7.54;30.17;99048.34;5084347;28;20529;-66
2022/01/10 04:13:31;;;;;;;7.90;3.30;;;;;;;7.52;30.32;99038.94;5059017;28;20124;-67
2022/01/10 04:15:57;;;;;;;5.70;3.33;;;;;;;7.56;30.21;99042.91;5058622;28;20035;-67
2022/01/10 04:18:24;;;;;;;4.93;2.77;;;;;;;7.46;30.38;99047.44;5057628;28;20081;-66
2022/01/10 04:20:50;;;;;;;6.93;3.17;;;;;;;7.44;30.26;99038.84;5106524;28;20043;-65
2022/01/10 04:23:17;;;;;;;9.10;3.73;;;;;;;7.81;29.94;99039.47;5082226;28;20040;-66
2022/01/10 04:25:43;;;;;;;5.97;3.00;;;;;;;7.47;30.27;99052.59;5107593;28;20039;-66
2022/01/10 04:28:10;;;;;;;8.63;3.10;;;;;;;7.09;30.16;98994.81;5091819;28;20053;-69
2022/01/10 04:30:36;;;;;;;4.97;2.97;;;;;;;7.11;30.30;99008.69;5091054;28;20039;-69
2022/01/10 04:33:04;;;;;;;3.43;2.53;;;;;;;7.30;30.19;99005.91;5091061;28;20514;-68
2022/01/10 04:35:31;;;;;;;6.13;3.10;;;;;;;7.70;30.17;99050.28;5108327;28;20039;-69
2022/01/10 04:37:57;;;;;;;5.43;2.80;;;;;;;7.49;30.36;99052.44;5074391;28;20042;-69
2022/01/10 04:40:24;;;;;;;9.47;3.50;;;;;;;7.61;30.38;99059.97;5074991;28;20468;-67
2022/01/10 04:42:51;;;;;;;9.13;3.30;;;;;;;7.40;30.21;99045.41;5058419;28;20504;-70
2022/01/10 04:45:18;;;;;;;6.47;2.87;;;;;;;7.30;30.29;99050.81;5108912;28;20079;-70
2022/01/10 04:47:46;;;;;;;4.47;3.20;;;;;;;7.37;30.45;99064.19;5074027;28;20063;-70
2022/01/10 04:52:53;;;;;;;6.47;3.13;;;;;;;7.84;29.93;99062.94;5110583;28;20082;-69
2022/01/10 04:55:22;;;;;;;4.50;2.80;;;;;;;7.37;30.31;99075.63;5092546;28;20147;-66
2022/01/10 04:57:48;;;;;;;7.27;2.60;;;;;;;7.32;30.68;99066.50;5108109;28;20499;-72
2022/01/10 05:00:15;;;;;;;5.27;2.90;;;;;;;7.64;30.21;99085.25;5107903;28;20043;-71
2022/01/10 05:02:43;;;;;;;5.87;3.00;;;;;;;7.74;30.11;99081.53;5090807;28;20043;-69
2022/01/10 05:05:14;;;;;;;8.98;3.28;;;;;;;7.79;29.91;99074.00;5108951;28;20062;-68
2022/01/10 05:07:40;;;;;;;6.20;2.30;;;;;;;7.32;30.32;99084.97;5089801;28;20146;-70
2022/01/10 05:10:07;;;;;;;9.50;3.00;;;;;;;7.34;30.53;99072.44;5089143;28;20039;-68
2022/01/10 05:12:36;;;;;;;6.97;3.00;;;;;;;7.33;30.26;99082.19;5084691;28;20047;-69
2022/01/10 05:15:03;;;;;;;4.43;2.40;;;;;;;7.73;30.18;99094.91;5089106;28;20492;-70
2022/01/10 05:17:29;;;;;;;8.67;2.83;;;;;;;7.29;30.17;99083.47;5070976;28;20259;-69
2022/01/10 05:19:58;;;;;;;4.97;2.83;;;;;;;7.84;30.00;99089.38;5089095;28;20085;-69
2022/01/10 05:22:24;;;;;;;3.87;2.57;;;;;;;7.28;30.20;99080.97;5087766;28;20184;-69
2022/01/10 05:24:50;;;;;;;4.33;2.37;;;;;;;7.27;30.24;99079.31;5088190;28;20495;-70
2022/01/10 05:27:16;;;;;;;7.70;2.53;;;;;;;7.28;30.15;99080.97;5088863;28;20116;-70
2022/01/10 05:29:42;;;;;;;4.63;2.43;;;;;;;7.50;30.43;99093.72;5070884;28;20039;-69
2022/01/10 05:32:09;;;;;;;6.40;2.67;;;;;;;7.19;30.30;99106.47;5070855;28;20184;-69
2022/01/10 05:34:55;;;;;;;4.17;2.33;;;;;;;7.25;30.27;99110.31;5086853;28;20077;-69
2022/01/10 05:37:21;;;;;;;5.03;2.50;;;;;;;7.27;30.16;99101.28;5088127;28;20086;-69
2022/01/10 05:39:46;;;;;;;6.20;2.53;;;;;;;7.33;30.35;99111.25;5054514;28;20691;-69
2022/01/10 05:42:12;;;;;;;7.50;2.80;;;;;;;7.22;30.00;99097.41;5088875;28;20044;-70
2022/01/10 05:44:38;;;;;;;4.27;2.37;;;;;;;7.13;30.31;99083.31;5054166;28;20393;-70
2022/01/10 05:47:04;;;;;;;8.90;2.77;;;;;;;7.49;30.29;99121.94;5070685;28;20040;-69
2022/01/10 05:49:34;;;;;;;8.97;3.00;;;;;;;6.98;30.36;99084.78;5054012;28;20495;-69
2022/01/10 05:52:01;;;;;;;5.88;2.22;;;;;;;7.26;30.36;99110.16;5090325;28;20039;-69
2022/01/10 05:54:33;;;;;;;5.67;2.63;;;;;;;7.29;30.37;99112.50;5074947;28;20047;-69
2022/01/10 05:57:01;;;;;;;4.43;2.40;;;;;;;7.26;29.87;99122.56;5041198;28;20171;-71
2022/01/10 05:59:28;;;;;;;4.60;2.77;;;;;;;7.17;30.09;99107.59;5092993;28;20046;-68
2022/01/10 06:01:55;;;;;;;3.63;2.23;;;;;;;7.09;30.15;99089.84;5111998;28;20043;-69
2022/01/10 06:04:24;;;;;;;4.83;2.33;;;;;;;7.39;30.29;99121.22;5095304;28;20035;-69
2022/01/10 06:06:51;;;;;;;4.60;2.57;;;;;;;7.39;30.04;99123.84;5062688;28;20059;-70
2022/01/10 06:09:20;;;;;;;5.80;2.60;;;;;;;7.15;29.87;99086.63;5062769;28;20047;-70
2022/01/10 06:11:46;;;;;;;4.97;2.73;;;;;;;7.36;30.00;99134.72;5093586;28;20056;-70
2022/01/10 06:14:14;;;;;;;7.67;2.47;;;;;;;7.30;30.24;99137.97;5111108;28;20063;-70
2022/01/10 06:16:40;;;;;;;5.00;2.70;;;;;;;7.28;30.27;99134.63;5111269;28;20035;-69
2022/01/10 06:19:06;;;;;;;3.40;2.27;;;;;;;7.25;30.20;99132.28;5094362;28;20438;-70
2022/01/10 06:21:32;;;;;;;4.30;2.30;;;;;;;7.29;30.09;99135.47;5111133;28;20035;-70
2022/01/10 06:23:59;;;;;;;7.23;2.80;;;;;;;7.20;30.15;99137.19;5093904;28;20820;-69
2022/01/10 06:26:25;;;;;;;7.27;2.10;;;;;;;7.06;30.17;99100.72;5094090;28;20079;-68
2022/01/10 06:28:51;;;;;;;7.97;2.90;;;;;;;7.25;30.03;99145.50;5112802;28;20385;-67
2022/01/10 06:31:17;;;;;;;4.37;2.57;;;;;;;7.28;30.35;99144.34;5077106;28;20130;-68
2022/01/10 06:34:00;;;;;;;5.37;2.67;;;;;;;7.31;30.46;99138.78;5110349;28;20077;-68
2022/01/10 06:36:26;;;;;;;6.63;2.73;;;;;;;7.26;30.22;99135.78;5094073;28;20035;-69
2022/01/10 06:38:53;;;;;;;5.43;3.27;;;;;;;7.38;30.08;99140.66;5094538;28;20054;-68
2022/01/10 06:41:19;;;;;;;6.20;2.57;;;;;;;7.37;30.21;99144.28;5094172;28;20044;-69
2022/01/10 06:43:46;;;;;;;6.07;2.93;;;;;;;7.37;30.08;99141.66;5110056;28;20046;-69
2022/01/10 06:46:13;;;;;;;4.57;3.10;;;;;;;7.17;29.96;99139.28;5110946;28;20054;-68
2022/01/10 06:48:40;;;;;;;7.40;3.23;;;;;;;7.14;30.38;99136.94;5110886;28;20062;-68
2022/01/10 06:51:06;;;;;;;4.97;2.87;;;;;;;7.16;30.49;99150.81;5110887;28;20042;-67
2022/01/10 06:53:32;;;;;;;5.00;3.07;;;;;;;7.17;30.35;99139.28;5093183;28;20182;-67
2022/01/10 06:56:03;;;;;;;11.73;3.55;;;;;;;7.24;29.81;99145.66;5110437;28;20048;-68
2022/01/10 06:58:34;;;;;;;8.87;3.03;;;;;;;7.73;30.23;99143.34;5110228;28;20136;-67
2022/01/10 07:01:01;;;;;;;6.30;3.23;;;;;;;7.30;30.06;99151.16;5060278;28;20044;-68
2022/01/10 07:03:34;;;;;;;4.23;2.70;;;;;;;7.78;29.96;99146.31;5076408;28;20285;-67
2022/01/10 07:06:15;;;;;;;5.00;3.03;;;;;;;7.18;30.51;99148.88;5078399;28;20417;-68
2022/01/10 07:08:41;;;;;;;7.50;3.07;;;;;;;7.09;30.39;99147.94;5093544;28;20054;-67
2022/01/10 07:11:07;;;;;;;5.90;2.73;;;;;;;7.13;30.80;99145.84;5110618;28;20154;-68
2022/01/10 07:13:35;;;;;;;5.53;3.27;;;;;;;6.90;30.37;99101.38;5092640;28;20076;-67
2022/01/10 07:16:04;;;;;;;7.67;3.03;;;;;;;7.36;30.39;99155.00;5110007;28;20130;-67
2022/01/10 07:18:30;;;;;;;7.10;3.37;;;;;;;7.22;30.37;99147.59;5109913;28;20126;-68
2022/01/10 07:20:58;;;;;;;8.47;3.40;;;;;;;7.18;30.26;99141.75;5092794;28;20142;-68
2022/01/10 07:23:26;;;;;;;6.13;2.87;;;;;;;7.70;30.39;99140.16;5092694;28;20126;-67
2022/01/10 07:25:54;;;;;;;9.07;4.10;;;;;;;6.99;30.32;99133.97;5093066;28;20494;-65
2022/01/10 07:28:22;;;;;;;11.77;4.30;;;;;;;7.10;30.47;99146.97;5110305;28;20107;-65
2022/01/10 07:30:49;;;;;;;6.93;3.13;;;;;;;7.12;30.80;99145.00;5110107;28;20084;-68
2022/01/10 07:33:15;;;;;;;9.33;3.00;;;;;;;7.28;30.49;99117.94;5109478;28;20047;-69
2022/01/10 07:35:42;;;;;;;3.33;2.77;;;;;;;7.57;30.52;99161.66;5091738;28;20043;-68
2022/01/10 07:38:10;;;;;;;5.70;2.93;;;;;;;7.31;30.50;99159.91;5109378;28;20062;-70
2022/01/10 07:40:36;;;;;;;5.67;3.60;;;;;;;7.59;30.47;99161.50;5108281;28;20055;-69
2022/01/10 07:43:02;;;;;;;7.60;4.20;;;;;;;7.12;30.33;99115.16;5108149;28;20039;-68
2022/01/10 07:45:40;;;;;;;9.10;3.20;;;;;;;7.50;30.17;99152.69;5077395;28;20509;-70
2022/01/10 07:48:09;;;;;;;6.23;3.20;;;;;;;8.01;30.18;99170.50;5091014;28;20080;-72
2022/01/10 07:50:34;;;;;;;6.03;3.00;;;;;;;7.53;30.06;99156.84;5085302;28;20028;-73
2022/01/10 07:53:00;;;;;;;8.30;4.13;;;;;;;7.54;29.82;99161.13;5082440;28;20036;-73
2022/01/10 07:55:26;;;;;;;10.10;3.47;;;;;;;7.61;30.22;99165.66;5107933;28;20047;-68
2022/01/10 07:57:52;;;;;;;6.17;3.50;;;;;;;7.47;30.01;99160.09;5090594;28;20038;-65
2022/01/10 08:00:17;;;;;;;9.57;3.70;;;;;;;7.50;30.32;99165.06;5108288;28;20498;-75
2022/01/10 08:02:44;;;;;;;6.73;3.67;;;;;;;7.84;29.81;99153.66;5090485;28;20096;-73
2022/01/10 08:05:11;;;;;;;5.50;3.07;;;;;;;7.79;29.94;99168.31;5057336;28;20035;-70
2022/01/10 08:07:36;;;;;;;11.00;4.33;;;;;;;7.54;29.86;99151.41;5073285;28;20051;-69
2022/01/10 08:10:03;;;;;;;9.47;4.20;;;;;;;7.84;30.26;99152.84;5107503;28;20491;-69
2022/01/10 08:12:29;;;;;;;12.60;4.60;;;;;;;7.56;30.00;99164.47;5107472;28;20068;-68
2022/01/10 08:14:55;;;;;;;7.23;3.70;;;;;;;7.56;30.13;99164.47;5088718;28;20040;-70
2022/01/10 08:17:21;;;;;;;7.03;3.27;;;;;;;7.39;29.93;99144.13;5089120;28;20032;-67
2022/01/10 08:19:46;;;;;;;7.07;3.60;;;;;;;7.44;30.09;99163.84;5090807;28;20100;-69
2022/01/10 08:22:12;;;;;;;7.13;3.47;;;;;;;7.23;30.06;99122.84;5106910;28;20081;-69
2022/01/10 08:24:38;;;;;;;8.30;3.70;;;;;;;7.59;29.99;99166.81;5088789;28;20044;-68
2022/01/10 08:27:04;;;;;;;10.63;3.80;;;;;;;7.77;30.17;99163.19;5107753;28;20057;-68
2022/01/10 08:29:30;;;;;;;7.37;3.53;;;;;;;7.61;29.89;99170.94;5072800;28;20036;-68
2022/01/10 08:31:56;;;;;;;8.67;4.47;;;;;;;7.69;29.92;99170.19;5070568;28;20586;-68
2022/01/10 08:34:23;;;;;;;6.17;3.40;;;;;;;7.84;30.13;99168.69;5107365;28;20047;-66
2022/01/10 08:36:50;;;;;;;5.33;3.27;;;;;;;7.73;29.85;99124.84;5107404;28;20039;-68
2022/01/10 08:39:17;;;;;;;9.00;3.80;;;;;;;8.10;29.84;99173.03;5065227;28;20115;-69
2022/01/10 08:41:43;;;;;;;9.30;3.60;;;;;;;7.58;29.71;99122.88;5090261;28;20487;-69
2022/01/10 08:44:09;;;;;;;10.43;4.20;;;;;;;7.99;29.86;99175.94;5072582;28;20044;-70
2022/01/10 08:46:35;;;;;;;5.97;3.60;;;;;;;8.17;29.93;99160.03;5087420;28;20036;-69
2022/01/10 08:49:01;;;;;;;7.47;3.63;;;;;;;7.88;29.78;99135.66;5108305;28;20061;-69
2022/01/10 08:51:30;;;;;;;7.33;3.90;;;;;;;8.08;29.45;99175.00;5091283;28;20491;-68
2022/01/10 08:53:57;;;;;;;7.53;3.60;;;;;;;8.37;29.68;99180.88;5074069;28;20131;-68
2022/01/10 08:56:22;;;;;;;9.00;3.73;;;;;;;8.08;29.39;99168.88;5103570;28;20046;-67
2022/01/10 08:58:48;;;;;;;10.17;4.10;;;;;;;7.91;29.23;99149.41;5087594;28;20040;-68
2022/01/10 09:01:14;;;;;;;9.00;2.93;;;;;;;8.15;29.35;99164.63;5076513;28;20035;-68
2022/01/10 09:03:40;;;;;;;9.57;3.93;;;;;;;7.99;29.14;99146.00;5107367;28;20189;-68
2022/01/10 09:06:06;;;;;;;10.03;4.57;;;;;;;8.13;29.14;99171.91;5108269;28;20403;-69
2022/01/10 09:08:35;;;;;;;8.97;4.80;;;;;;;8.65;29.38;99172.75;5074415;28;20043;-68
2022/01/10 09:11:05;;;;;;;8.60;4.23;;;;;;;8.38;29.52;99165.81;5107043;28;20050;-68
2022/01/10 09:13:31;;;;;;;8.50;4.30;;;;;;;8.38;29.25;99153.44;5089513;28;20059;-68
2022/01/10 09:15:57;;;;;;;7.00;4.70;;;;;;;8.06;29.53;99163.75;5090771;28;20120;-69
2022/01/10 09:18:23;;;;;;;7.47;4.23;;;;;;;8.13;29.39;99170.06;5109453;28;20071;-68
2022/01/10 09:20:50;;;;;;;9.40;4.87;;;;;;;8.24;29.29;99171.69;5090365;28;20166;-68
2022/01/10 09:23:16;;;;;;;9.80;5.03;;;;;;;8.23;29.09;99178.78;5107842;28;20044;-68
2022/01/10 09:25:44;;;;;;;11.93;4.97;;;;;;;8.04;29.37;99162.25;5106729;28;20038;-68
2022/01/10 09:28:10;;;;;;;9.80;5.13;;;;;;;8.25;29.72;99162.75;5071239;28;20040;-68
2022/01/10 09:30:36;;;;;;;9.53;5.50;;;;;;;8.43;29.38;99168.81;5089952;28;20040;-68
2022/01/10 09:33:02;;;;;;;17.93;6.83;;;;;;;8.51;28.98;99169.72;5107563;28;20043;-68
2022/01/10 09:35:28;;;;;;;15.80;7.30;;;;;;;8.28;28.82;99165.09;5093809;28;20414;-69
2022/01/10 09:37:53;;;;;;;11.77;5.97;;;;;;;8.40;28.88;99161.22;5111350;28;20479;-68
2022/01/10 09:40:19;;;;;;;7.97;5.00;;;;;;;8.41;28.76;99161.06;5112129;28;20549;-69
2022/01/10 09:42:48;;;;;;;12.30;6.17;;;;;;;8.35;28.62;99160.84;5111348;28;20044;-68
2022/01/10 09:45:14;;;;;;;10.50;5.80;;;;;;;8.29;29.12;99179.97;5106995;28;20036;-68
2022/01/10 09:47:39;;;;;;;10.83;5.70;;;;;;;8.37;28.86;99187.97;5111686;28;20035;-69
2022/01/10 09:50:07;;;;;;;11.23;6.53;;;;;;;8.71;28.78;99177.44;5110217;28;20051;-68
2022/01/10 09:52:35;;;;;;;8.03;4.40;;;;;;;8.66;29.08;99143.50;5112816;28;20491;-68
2022/01/10 09:55:01;;;;;;;14.07;6.57;;;;;;;8.48;28.66;99166.56;5112221;28;20067;-68
2022/01/10 09:57:28;;;;;;;17.23;6.50;;;;;;;8.55;28.93;99164.94;5111331;28;20042;-68
2022/01/10 09:59:54;;;;;;;11.40;5.37;;;;;;;8.56;28.76;99164.78;5077286;28;20088;-68
2022/01/10 10:02:20;;;;;;;10.13;4.50;;;;;;;8.69;29.33;99174.94;5111474;28;20044;-69
2022/01/10 10:04:46;;;;;;;14.93;5.03;;;;;;;8.72;28.82;99171.16;5062964;28;20043;-69
2022/01/10 10:07:13;;;;;;;10.50;3.97;;;;;;;8.92;29.26;99165.47;5073689;28;20036;-69
2022/01/10 10:09:39;;;;;;;7.63;4.07;;;;;;;8.70;28.98;99136.06;5091932;28;20051;-69
2022/01/10 10:12:05;;;;;;;12.80;4.47;;;;;;;9.03;28.64;99183.72;5073112;28;20138;-67
2022/01/10 10:14:32;;;;;;;10.03;4.00;;;;;;;9.45;28.64;99176.59;5110877;28;20039;-69
2022/01/10 10:17:06;;;;;;;10.70;4.40;;;;;;;9.27;28.25;99185.63;5091928;28;20432;-68
2022/01/10 10:19:32;;;;;;;6.97;4.33;;;;;;;8.91;27.89;99142.63;5111192;28;20047;-69
2022/01/10 10:21:59;;;;;;;7.13;4.23;;;;;;;9.44;28.63;99176.75;5113050;28;20035;-69
2022/01/10 10:24:26;;;;;;;5.77;3.90;;;;;;;9.59;28.66;99178.59;5110852;28;20039;-69
2022/01/10 10:26:57;;;;;;;8.57;3.63;;;;;;;9.84;28.18;99169.66;5110857;28;20101;-69
2022/01/10 10:29:23;;;;;;;7.87;4.10;;;;;;;9.54;27.73;99185.38;5111357;28;20044;-68
2022/01/10 10:31:55;;;;;;;7.60;3.43;;;;;;;10.17;27.23;99183.81;5094110;28;20229;-68
2022/01/10 10:34:28;;;;;;;10.70;4.80;;;;;;;10.26;26.94;99172.19;5112466;28;20051;-69
2022/01/10 10:37:14;;;;;;;7.80;4.17;;;;;;;10.36;27.32;99179.97;5093449;28;20044;-68
2022/01/10 10:39:42;;;;;;;7.50;4.87;;;;;;;10.08;27.47;99179.50;5091394;28;20055;-68
2022/01/10 10:42:14;;;;;;;18.33;6.60;;;;;;;10.25;27.18;99178.50;5103991;28;20134;-68
2022/01/10 10:44:42;;;;;;;17.37;7.47;;;;;;;9.80;27.82;99181.63;5090474;28;20119;-70
2022/01/10 10:47:08;;;;;;;11.50;4.93;;;;;;;9.62;27.30;99172.13;5108640;28;20380;-72
2022/01/10 10:49:42;;;;;;;7.63;3.67;;;;;;;9.85;27.95;99166.03;5109129;28;20055;-70
2022/01/10 10:52:10;;;;;;;9.60;4.20;;;;;;;9.64;27.51;99159.56;5109112;28;20052;-72
2022/01/10 10:54:37;;;;;;;13.13;4.20;;;;;;;9.31;28.16;99192.25;5073030;28;20112;-69
2022/01/10 10:57:05;;;;;;;5.83;3.33;;;;;;;9.29;28.09;99135.94;5091019;28;20884;-69
2022/01/10 10:59:35;;;;;;;12.20;4.67;;;;;;;9.18;28.24;99192.72;5089203;28;20040;-68
2022/01/10 11:02:02;;;;;;;9.10;4.23;;;;;;;8.85;27.84;99169.75;5089418;28;20408;-69
2022/01/10 11:04:32;;;;;;;3.80;2.93;;;;;;;8.99;28.52;99186.84;5073491;28;20044;-68
2022/01/10 11:06:58;;;;;;;7.53;3.50;;;;;;;8.59;28.44;99116.00;5073073;28;20036;-70
2022/01/10 11:09:25;;;;;;;13.17;4.07;;;;;;;8.94;28.38;99178.53;5089968;28;20177;-70
2022/01/10 11:11:51;;;;;;;10.13;3.97;;;;;;;8.59;28.62;99163.66;5093040;28;20510;-70
2022/01/10 11:14:21;;;;;;;5.43;3.53;;;;;;;8.84;28.63;99167.25;5111455;28;20055;-71
2022/01/10 11:16:48;;;;;;;8.53;5.07;;;;;;;8.05;28.52;99142.75;5058743;28;20564;-70
2022/01/10 11:19:16;;;;;;;7.37;2.93;;;;;;;8.92;28.78;99184.00;5084925;28;20046;-69
2022/01/10 11:21:53;;;;;;;8.97;4.03;;;;;;;9.16;28.29;99185.91;5089088;28;20510;-69
2022/01/10 11:24:46;;;;;;;8.77;3.87;;;;;;;9.29;28.27;99179.19;5107218;28;20040;-68
2022/01/10 11:27:28;;;;;;;11.97;4.07;;;;;;;9.15;28.24;99161.25;5089298;28;20147;-69
2022/01/10 11:29:56;;;;;;;5.53;3.70;;;;;;;8.48;28.45;99172.69;5089155;28;20047;-69
2022/01/10 11:33:04;;;;;;;10.13;4.57;;;;;;;8.97;28.41;99172.91;5092073;28;20036;-69
2022/01/10 11:35:41;;;;;;;13.30;3.50;;;;;;;8.89;28.29;99178.22;5076142;28;20361;-68
2022/01/10 11:38:36;;;;;;;7.50;2.87;;;;;;;8.99;28.42;99170.94;5109264;28;20131;-69
2022/01/10 11:41:25;;;;;;;7.83;3.40;;;;;;;8.22;28.99;99173.63;5109204;28;20040;-69
2022/01/10 11:43:55;;;;;;;6.30;3.17;;;;;;;8.17;29.11;99174.09;5102513;28;20039;-69
2022/01/10 11:46:37;;;;;;;6.38;3.13;;;;;;;8.96;28.85;99180.06;5109307;28;20043;-69
2022/01/10 11:49:09;;;;;;;5.57;3.47;;;;;;;8.87;28.63;99194.25;5109390;28;20122;-69
2022/01/10 11:51:43;;;;;;;5.63;3.13;;;;;;;8.84;28.74;99202.47;5111191;28;20047;-69
2022/01/10 11:54:18;;;;;;;9.97;3.93;;;;;;;8.15;28.85;99201.66;5092375;28;20047;-69
2022/01/10 11:56:51;;;;;;;10.63;3.50;;;;;;;8.83;29.16;99203.47;5109838;28;20051;-68